Time;durP1;ratioP1;P1;durP2;ratioP2;P2;SDS_P1;SDS_P2;PMS_P1;PMS_P2;Temp;Humidity;BMP_temperature;BMP_pressure;BME280_temperature;BME280_humidity;BME280_pressure;Samples;Min_cycle;Max_cycle;Signal;HPM_P1;HPM_P2
2024/01/12 00:01:09;;;;;;;;;;;;;;;0.87;53.80;101015.78;5492156;32;35566;-68
2024/01/12 00:04:11;;;;;;;;;;;;;;;0.73;54.03;101013.06;5492733;32;35542;-69
2024/01/12 00:07:13;;;;;;;;;;;;;;;0.57;55.02;101015.44;5490224;32;35536;-69
2024/01/12 00:10:16;;;;;;;;;;;;;;;0.69;54.89;101019.06;5466815;32;32338;-68
2024/01/12 00:13:18;;;;;;;;;;;;;;;1.27;52.70;101016.19;5487855;32;35924;-71
2024/01/12 00:16:20;;;;;;;;;;;;;;;1.31;52.68;101025.72;5495333;32;34180;-67
2024/01/12 00:19:22;;;;;;;;;;;;;;;1.85;51.98;101021.81;5479162;32;34985;-68
2024/01/12 00:22:25;;;;;;;;;;;;;;;1.06;53.28;101014.25;5488515;32;34820;-70
2024/01/12 00:25:27;;;;;;;;;;;;;;;1.34;53.31;101015.38;5491158;32;35941;-68
2024/01/12 00:28:30;;;;;;;;;;;;;;;1.60;52.46;101016.44;5490968;32;34388;-68
2024/01/12 00:31:33;;;;;;;;;;;;;;;1.15;53.16;101019.50;5499787;32;35444;-69
2024/01/12 00:34:36;;;;;;;;;;;;;;;2.13;50.82;101005.56;5491178;32;35389;-70
2024/01/12 00:37:38;;;;;;;;;;;;;;;1.20;53.29;101019.56;5482329;32;35458;-68
2024/01/12 00:40:40;;;;;;;;;;;;;;;0.60;55.14;101023.28;5486149;32;34254;-70
2024/01/12 00:43:42;;;;;;;;;;;;;;;0.80;54.52;101029.53;5495758;32;34397;-69
2024/01/12 00:46:44;;;;;;;;;;;;;;;0.63;55.00;101028.47;5501749;32;35796;-67
2024/01/12 00:49:47;;;;;;;;;;;;;;;0.81;55.17;101028.66;5494650;32;36061;-68
2024/01/12 00:52:49;;;;;;;;;;;;;;;0.56;56.20;101029.25;5499498;32;34275;-69
2024/01/12 00:55:52;;;;;;;;;;;;;;;0.08;57.38;101039.00;5496072;32;34410;-70
2024/01/12 00:58:55;;;;;;;;;;;;;;;0.85;56.00;101040.81;5497365;32;34198;-68
2024/01/12 01:01:58;;;;;;;;;;;;;;;0.25;57.58;101054.72;5500105;32;34302;-68
2024/01/12 01:05:01;;;;;;;;;;;;;;;0.23;56.70;101052.09;5491167;32;34114;-68
2024/01/12 01:08:03;;;;;;;;;;;;;;;0.63;56.96;101060.37;5498169;32;34370;-68
2024/01/12 01:11:05;;;;;;;;;;;;;;;0.58;56.98;101061.16;5496318;32;35441;-67
2024/01/12 01:14:07;;;;;;;;;;;;;;;0.57;56.69;101060.28;5482534;32;35316;-67
2024/01/12 01:17:09;;;;;;;;;;;;;;;0.75;56.50;101057.06;5491658;32;35401;-67
2024/01/12 01:20:12;;;;;;;;;;;;;;;0.92;55.64;101065.91;5486789;32;34229;-70
2024/01/12 01:23:14;;;;;;;;;;;;;;;1.56;54.75;101069.12;5477721;32;35855;-69
2024/01/12 01:26:16;;;;;;;;;;;;;;;1.01;55.79;101065.13;5490253;32;34196;-69
2024/01/12 01:29:18;;;;;;;;;;;;;;;0.85;56.31;101053.75;5493219;32;34564;-67
2024/01/12 01:32:21;;;;;;;;;;;;;;;0.36;57.20;101052.28;5474551;32;34919;-69
2024/01/12 01:35:26;;;;;;;;;;;;;;;1.03;55.77;101063.41;5496102;32;34243;-68
2024/01/12 01:38:29;;;;;;;;;;;;;;;1.00;55.43;101060.78;5477108;32;34142;-67
2024/01/12 01:41:31;;;;;;;;;;;;;;;0.63;56.25;101062.09;5494487;32;35388;-69
2024/01/12 01:44:33;;;;;;;;;;;;;;;0.80;56.43;101061.44;5498433;32;34407;-69
2024/01/12 01:47:35;;;;;;;;;;;;;;;1.14;55.62;101048.84;5495426;32;34277;-69
2024/01/12 01:50:38;;;;;;;;;;;;;;;0.45;57.40;101052.38;5479272;32;36075;-67
2024/01/12 01:53:40;;;;;;;;;;;;;;;0.16;58.27;101057.19;5490740;32;34264;-68
2024/01/12 01:56:42;;;;;;;;;;;;;;;0.98;56.42;101042.66;5485454;32;35808;-69
2024/01/12 01:59:44;;;;;;;;;;;;;;;1.14;55.86;101051.44;5473508;32;34774;-68
2024/01/12 02:02:46;;;;;;;;;;;;;;;0.93;55.96;101057.28;5491781;32;35545;-70
2024/01/12 02:05:49;;;;;;;;;;;;;;;0.84;56.42;101051.13;5481420;32;35172;-69
2024/01/12 02:08:52;;;;;;;;;;;;;;;0.50;57.72;101054.19;5490017;32;34394;-69
2024/01/12 02:11:54;;;;;;;;;;;;;;;0.67;57.12;101059.56;5496796;32;34348;-68
2024/01/12 02:14:56;;;;;;;;;;;;;;;0.31;58.22;101059.97;5489812;32;34942;-69
2024/01/12 02:17:59;;;;;;;;;;;;;;;0.86;57.38;101058.06;5482945;32;35632;-67
2024/01/12 02:21:01;;;;;;;;;;;;;;;1.13;56.38;101056.63;5467612;32;34256;-70
2024/01/12 02:24:04;;;;;;;;;;;;;;;0.88;56.89;101053.75;5488782;32;34637;-68
2024/01/12 02:27:06;;;;;;;;;;;;;;;0.68;56.98;101063.03;5483016;32;34293;-68
2024/01/12 02:30:08;;;;;;;;;;;;;;;0.84;57.23;101062.38;5475716;32;34371;-72
2024/01/12 02:33:11;;;;;;;;;;;;;;;0.78;57.53;101070.06;5482898;32;34978;-69
2024/01/12 02:36:13;;;;;;;;;;;;;;;0.95;56.74;101073.69;5485723;32;34362;-70
2024/01/12 02:39:15;;;;;;;;;;;;;;;0.25;58.77;101078.84;5489114;32;34354;-67
2024/01/12 02:42:17;;;;;;;;;;;;;;;0.46;58.02;101086.03;5494880;32;35790;-67
2024/01/12 02:45:20;;;;;;;;;;;;;;;0.65;58.80;101091.47;5491642;32;34281;-69
2024/01/12 02:48:23;;;;;;;;;;;;;;;0.79;58.14;101092.50;5469219;32;35091;-67
2024/01/12 02:51:25;;;;;;;;;;;;;;;0.12;59.29;101091.56;5479840;32;35609;-67
2024/01/12 02:54:27;;;;;;;;;;;;;;;0.62;58.33;101092.28;5496229;32;35650;-67
2024/01/12 02:57:30;;;;;;;;;;;;;;;0.44;58.10;101092.88;5490131;32;35172;-69
2024/01/12 03:00:32;;;;;;;;;;;;;;;0.80;58.46;101096.81;5477418;32;34443;-69
2024/01/12 03:03:34;;;;;;;;;;;;;;;0.76;58.38;101097.63;5491417;32;35276;-69
2024/01/12 03:06:37;;;;;;;;;;;;;;;0.17;59.04;101103.72;5491535;32;35264;-68
2024/01/12 03:09:39;;;;;;;;;;;;;;;0.33;58.47;101104.84;5493144;32;34936;-69
2024/01/12 03:12:41;;;;;;;;;;;;;;;0.26;59.28;101100.44;5476981;32;34171;-70
2024/01/12 03:15:43;;;;;;;;;;;;;;;0.71;58.63;101094.09;5494857;32;34634;-67
2024/01/12 03:18:46;;;;;;;;;;;;;;;1.20;56.71;101089.47;5490184;32;34240;-67
2024/01/12 03:21:49;;;;;;;;;;;;;;;0.72;56.89;101078.63;5493415;32;35564;-70
2024/01/12 03:24:51;;;;;;;;;;;;;;;0.35;58.85;101087.59;5490089;32;34463;-69
2024/01/12 03:27:53;;;;;;;;;;;;;;;0.31;58.90;101090.13;5491958;32;34309;-68
2024/01/12 03:30:55;;;;;;;;;;;;;;;0.11;60.02;101092.44;5481691;32;35770;-70
2024/01/12 03:33:57;;;;;;;;;;;;;;;1.13;57.37;101078.19;5474259;32;34303;-70
2024/01/12 03:37:00;;;;;;;;;;;;;;;1.09;57.70;101076.41;5498612;32;34983;-69
2024/01/12 03:40:04;;;;;;;;;;;;;;;1.81;55.02;101083.12;5491506;32;34458;-68
2024/01/12 03:43:06;;;;;;;;;;;;;;;1.16;56.45;101085.13;5496140;32;35393;-69
2024/01/12 03:46:09;;;;;;;;;;;;;;;1.03;57.14;101081.53;5485916;32;34254;-68
2024/01/12 03:49:11;;;;;;;;;;;;;;;1.65;55.30;101088.19;5480167;32;35897;-69
2024/01/12 03:52:13;;;;;;;;;;;;;;;1.88;54.74;101095.28;5501585;32;34106;-70
2024/01/12 03:55:17;;;;;;;;;;;;;;;1.54;55.38;101095.84;5468616;32;34873;-70
2024/01/12 03:58:19;;;;;;;;;;;;;;;1.71;54.77;101096.88;5484223;32;35385;-68
2024/01/12 04:01:22;;;;;;;;;;;;;;;1.97;53.73;101097.06;5487233;32;34874;-68
2024/01/12 04:04:32;;;;;;;;;;;;;;;1.30;55.62;101106.88;5495740;32;35549;-68
2024/01/12 04:08:08;;;;;;;;;;;;;;;;;;;;;
2024/01/12 04:11:21;;;;;;;;;;;;;;;0.63;58.59;101106.06;5480277;32;33760;-69
2024/01/12 04:14:24;;;;;;;;;;;;;;;0.32;59.66;101113.41;5493411;32;34458;-67
2024/01/12 04:21:05;;;;;;;;;;;;;;;0.89;58.10;101114.16;5565119;27;20346;-96
2024/01/12 04:24:09;;;;;;;;;;;;;;;1.77;54.76;101106.41;5434200;32;34032;-96
2024/01/12 04:27:18;;;;;;;;;;;;;;;1.27;56.00;101106.81;5450958;32;34829;-96
2024/01/12 04:30:32;;;;;;;;;;;;;;;1.17;56.69;101105.88;5459519;32;33157;-96
2024/01/12 04:33:45;;;;;;;;;;;;;;;0.47;57.95;101113.62;5451560;32;33075;-96
2024/01/12 04:36:50;;;;;;;;;;;;;;;1.08;57.02;101110.94;5446921;32;33309;-96
2024/01/12 04:40:11;;;;;;;;;;;;;;;0.91;57.78;101105.56;5450436;32;34116;-96
2024/01/12 04:43:18;;;;;;;;;;;;;;;1.98;54.48;101108.31;5454197;32;33461;-96
2024/01/12 04:46:22;;;;;;;;;;;;;;;1.74;55.02;101111.56;5446021;32;34680;-96
2024/01/12 04:49:37;;;;;;;;;;;;;;;;;;;;;
2024/01/12 04:53:24;;;;;;;;;;;;;;;;;;;;;
2024/01/12 04:56:41;;;;;;;;;;;;;;;2.09;54.22;101128.28;5454380;32;34041;-96
2024/01/12 05:00:12;;;;;;;;;;;;;;;2.17;53.53;101130.91;5440454;32;35080;-96
2024/01/12 05:03:28;;;;;;;;;;;;;;;1.54;55.57;101137.31;5442757;27;35066;-69
2024/01/12 05:06:30;;;;;;;;;;;;;;;0.97;56.98;101148.78;5400240;32;35382;-69
2024/01/12 05:09:32;;;;;;;;;;;;;;;1.48;56.41;101151.09;5406219;32;35117;-70
2024/01/12 05:12:37;;;;;;;;;;;;;;;1.72;55.97;101152.16;5388441;32;35241;-68
2024/01/12 05:15:39;;;;;;;;;;;;;;;1.54;56.06;101151.13;5406122;32;35139;-68
2024/01/12 05:18:42;;;;;;;;;;;;;;;2.27;54.50;101163.84;5391408;32;34978;-69
2024/01/12 05:21:44;;;;;;;;;;;;;;;0.52;58.08;101166.31;5384658;32;35100;-71
2024/01/12 05:24:46;;;;;;;;;;;;;;;1.55;56.57;101162.37;5405908;32;34429;-70
2024/01/12 05:27:48;;;;;;;;;;;;;;;0.96;57.35;101160.84;5404679;32;34716;-68
2024/01/12 05:30:50;;;;;;;;;;;;;;;1.88;55.54;101165.28;5409110;32;34199;-70
2024/01/12 05:33:53;;;;;;;;;;;;;;;1.42;56.47;101166.56;5378118;32;34381;-69
2024/01/12 05:36:55;;;;;;;;;;;;;;;1.30;56.90;101179.37;5407588;32;35078;-69
2024/01/12 05:39:58;;;;;;;;;;;;;;;2.25;54.16;101175.94;5391996;32;34809;-70
2024/01/12 05:43:00;;;;;;;;;;;;;;;1.48;55.65;101184.75;5406530;32;34592;-67
2024/01/12 05:46:03;;;;;;;;;;;;;;;1.54;55.47;101174.44;5407462;32;35469;-70
2024/01/12 05:49:06;;;;;;;;;;;;;;;1.52;56.00;101186.50;5404229;32;34575;-70
2024/01/12 05:52:08;;;;;;;;;;;;;;;1.23;56.19;101190.53;5409693;32;34824;-69
2024/01/12 05:55:10;;;;;;;;;;;;;;;1.58;55.17;101196.94;5390219;32;35634;-68
2024/01/12 05:58:12;;;;;;;;;;;;;;;1.62;55.25;101196.13;5408505;32;35496;-69
2024/01/12 06:01:14;;;;;;;;;;;;;;;1.70;55.47;101187.56;5392773;32;34819;-68
2024/01/12 06:04:16;;;;;;;;;;;;;;;0.89;57.14;101191.81;5406185;32;35379;-67
2024/01/12 06:07:18;;;;;;;;;;;;;;;1.23;56.70;101187.94;5402551;32;35210;-69
2024/01/12 06:10:20;;;;;;;;;;;;;;;2.32;53.43;101192.41;5389487;32;34154;-70
2024/01/12 06:13:22;;;;;;;;;;;;;;;1.98;53.83;101176.59;5409779;32;34613;-69
2024/01/12 06:16:24;;;;;;;;;;;;;;;2.18;53.56;101190.56;5371216;32;34278;-69
2024/01/12 06:19:26;;;;;;;;;;;;;;;0.82;57.65;101196.91;5405625;32;34696;-72
2024/01/12 06:22:28;;;;;;;;;;;;;;;1.57;55.68;101205.56;5383096;32;34687;-70
2024/01/12 06:25:36;;;;;;;;;;;;;;;0.88;56.72;101208.19;5401663;32;34315;-71
2024/01/12 06:28:38;;;;;;;;;;;;;;;1.14;56.35;101218.88;5410221;32;35471;-69
2024/01/12 06:31:42;;;;;;;;;;;;;;;2.42;52.89;101207.19;5401637;32;35404;-67
2024/01/12 06:34:44;;;;;;;;;;;;;;;1.73;54.51;101209.19;5409144;32;35023;-70
2024/01/12 06:37:46;;;;;;;;;;;;;;;1.66;54.31;101215.16;5406045;32;34937;-69
2024/01/12 06:40:51;;;;;;;;;;;;;;;1.06;55.78;101221.38;5405399;32;34875;-69
2024/01/12 06:43:53;;;;;;;;;;;;;;;2.08;53.77;101212.13;5409371;32;35079;-67
2024/01/12 06:46:55;;;;;;;;;;;;;;;1.83;53.93;101220.53;5380044;32;34923;-71
2024/01/12 06:49:57;;;;;;;;;;;;;;;2.04;53.45;101222.44;5410304;32;34720;-69
2024/01/12 06:53:00;;;;;;;;;;;;;;;1.65;54.75;101228.09;5408710;32;35191;-70
2024/01/12 06:56:03;;;;;;;;;;;;;;;1.43;55.11;101233.06;5396341;32;34879;-71
2024/01/12 06:59:06;;;;;;;;;;;;;;;1.46;55.03;101227.91;5408140;32;34884;-70
2024/01/12 07:02:08;;;;;;;;;;;;;;;0.54;58.09;101238.75;5408469;32;35043;-68
2024/01/12 07:05:13;;;;;;;;;;;;;;;1.54;56.46;101230.56;5397026;32;36658;-67
2024/01/12 07:08:17;;;;;;;;;;;;;;;2.11;53.21;101224.22;5412046;32;34320;-69
2024/01/12 07:11:19;;;;;;;;;;;;;;;1.58;54.98;101241.00;5411004;32;34544;-68
2024/01/12 07:14:21;;;;;;;;;;;;;;;0.68;58.00;101249.31;5395675;32;34601;-68
2024/01/12 07:17:24;;;;;;;;;;;;;;;1.89;54.74;101249.97;5415435;32;35142;-69
2024/01/12 07:20:26;;;;;;;;;;;;;;;2.51;52.88;101256.56;5394582;32;35380;-69
2024/01/12 07:23:30;;;;;;;;;;;;;;;2.15;52.97;101264.91;5412204;32;37308;-68
2024/01/12 07:26:33;;;;;;;;;;;;;;;1.16;55.48;101267.25;5398577;32;34485;-70
2024/01/12 07:29:35;;;;;;;;;;;;;;;1.11;56.86;101275.81;5396747;32;34762;-69
2024/01/12 07:32:37;;;;;;;;;;;;;;;1.46;55.64;101276.25;5402111;32;36539;-69
2024/01/12 07:35:40;;;;;;;;;;;;;;;1.26;55.93;101276.00;5409475;32;33076;-70
2024/01/12 07:38:42;;;;;;;;;;;;;;;0.80;56.90;101286.59;5414185;32;35315;-69
2024/01/12 07:41:44;;;;;;;;;;;;;;;1.32;56.00;101281.28;5409943;32;34718;-69
2024/01/12 07:44:47;;;;;;;;;;;;;;;1.54;55.44;101278.06;5412158;32;34540;-69
2024/01/12 07:47:49;;;;;;;;;;;;;;;1.50;56.40;101275.44;5402982;32;34653;-71
2024/01/12 07:50:51;;;;;;;;;;;;;;;1.51;55.14;101282.38;5405966;32;35649;-70
2024/01/12 07:53:53;;;;;;;;;;;;;;;2.34;53.54;101286.69;5397515;32;35054;-67
2024/01/12 07:56:55;;;;;;;;;;;;;;;2.27;53.10;101277.13;5409494;32;34563;-68
2024/01/12 07:59:58;;;;;;;;;;;;;;;1.39;56.52;101301.22;5398895;32;34524;-69
2024/01/12 08:03:00;;;;;;;;;;;;;;;1.86;55.20;101295.72;5412044;32;34479;-70
2024/01/12 08:06:02;;;;;;;;;;;;;;;1.83;55.32;101298.28;5411118;32;34401;-68
2024/01/12 08:09:05;;;;;;;;;;;;;;;1.46;55.15;101313.38;5401668;32;34779;-68
2024/01/12 08:12:07;;;;;;;;;;;;;;;1.47;55.42;101309.94;5396286;32;34954;-70
2024/01/12 08:15:09;;;;;;;;;;;;;;;1.57;54.77;101309.22;5399046;32;34471;-68
2024/01/12 08:18:11;;;;;;;;;;;;;;;1.29;56.03;101310.59;5399057;32;34472;-69
2024/01/12 08:21:16;;;;;;;;;;;;;;;2.16;53.50;101308.16;5410287;32;34724;-70
2024/01/12 08:24:18;;;;;;;;;;;;;;;1.46;55.90;101308.22;5407910;32;34079;-68
2024/01/12 08:27:20;;;;;;;;;;;;;;;1.92;55.04;101319.13;5396167;32;34226;-70
2024/01/12 08:30:22;;;;;;;;;;;;;;;1.63;55.13;101322.25;5415711;32;35289;-71
2024/01/12 08:33:24;;;;;;;;;;;;;;;2.39;53.59;101310.97;5400434;32;34224;-67
2024/01/12 08:36:27;;;;;;;;;;;;;;;2.04;53.67;101321.84;5391613;32;34487;-70
2024/01/12 08:39:29;;;;;;;;;;;;;;;1.74;54.85;101332.75;5412540;32;34715;-68
2024/01/12 08:42:32;;;;;;;;;;;;;;;1.77;54.26;101334.50;5416470;32;34338;-69
2024/01/12 08:45:34;;;;;;;;;;;;;;;2.18;53.26;101329.75;5414252;32;34533;-71
2024/01/12 08:48:36;;;;;;;;;;;;;;;2.12;53.87;101334.87;5396083;32;35472;-70
2024/01/12 08:51:39;;;;;;;;;;;;;;;2.37;52.91;101344.66;5405195;32;35540;-72
2024/01/12 08:54:42;;;;;;;;;;;;;;;0.92;55.59;101353.22;5417357;32;33495;-69
2024/01/12 08:57:44;;;;;;;;;;;;;;;1.55;55.13;101357.56;5397819;32;35323;-68
2024/01/12 09:00:46;;;;;;;;;;;;;;;1.38;55.38;101348.69;5395157;32;34140;-70
2024/01/12 09:03:48;;;;;;;;;;;;;;;1.77;54.31;101353.53;5411863;32;34416;-71
2024/01/12 09:06:55;;;;;;;;;;;;;;;2.29;52.35;101348.91;5409358;32;34509;-69
2024/01/12 09:09:57;;;;;;;;;;;;;;;2.63;51.14;101347.50;5395729;32;35223;-68
2024/01/12 09:13:00;;;;;;;;;;;;;;;1.87;53.67;101351.94;5411109;32;34081;-68
2024/01/12 09:16:02;;;;;;;;;;;;;;;2.28;52.30;101352.37;5411071;32;34452;-69
2024/01/12 09:19:04;;;;;;;;;;;;;;;2.11;51.73;101354.75;5419010;32;34818;-71
2024/01/12 09:22:07;;;;;;;;;;;;;;;2.42;52.05;101360.28;5390092;32;35614;-69
2024/01/12 09:25:09;;;;;;;;;;;;;;;2.61;51.00;101356.13;5414482;32;34514;-69
2024/01/12 09:28:11;;;;;;;;;;;;;;;2.27;51.66;101363.59;5417620;32;36559;-70
2024/01/12 09:31:13;;;;;;;;;;;;;;;2.31;52.36;101367.06;5414566;32;34226;-68
2024/01/12 09:34:15;;;;;;;;;;;;;;;2.60;51.58;101365.66;5414504;32;34779;-68
2024/01/12 09:37:17;;;;;;;;;;;;;;;2.86;50.73;101362.41;5415061;32;33670;-69
2024/01/12 09:40:19;;;;;;;;;;;;;;;2.61;50.96;101367.38;5401342;32;35262;-71
2024/01/12 09:43:22;;;;;;;;;;;;;;;2.63;50.94;101363.06;5392573;32;34823;-71
2024/01/12 09:46:24;;;;;;;;;;;;;;;2.48;50.80;101364.66;5391644;32;34271;-69
2024/01/12 09:49:27;;;;;;;;;;;;;;;1.88;52.38;101367.50;5401354;32;34094;-70
2024/01/12 09:52:29;;;;;;;;;;;;;;;2.40;51.35;101362.87;5390324;32;35385;-71
2024/01/12 09:55:31;;;;;;;;;;;;;;;1.87;52.52;101363.16;5410071;32;34904;-72
2024/01/12 09:58:38;;;;;;;;;;;;;;;3.07;49.43;101364.28;5413042;32;34440;-69
2024/01/12 10:01:40;;;;;;;;;;;;;;;3.39;48.41;101364.50;5380830;32;35457;-70
2024/01/12 10:04:43;;;;;;;;;;;;;;;2.82;49.71;101366.69;5400611;32;34753;-70
2024/01/12 10:07:44;;;;;;;;;;;;;;;2.78;49.94;101367.53;5412127;32;35374;-70
2024/01/12 10:10:46;;;;;;;;;;;;;;;2.61;50.17;101369.09;5401567;32;34311;-70
2024/01/12 10:13:49;;;;;;;;;;;;;;;2.65;49.83;101361.38;5415035;32;34608;-70
2024/01/12 10:16:55;;;;;;;;;;;;;;;3.03;48.92;101371.19;5414584;32;34956;-71
2024/01/12 10:19:57;;;;;;;;;;;;;;;2.84;49.29;101364.12;5369233;32;974244;-70
2024/01/12 10:22:59;;;;;;;;;;;;;;;3.33;48.41;101357.53;5409601;32;34785;-71
2024/01/12 10:26:03;;;;;;;;;;;;;;;3.84;47.04;101355.19;5397726;32;35396;-71
2024/01/12 10:29:06;;;;;;;;;;;;;;;3.80;45.84;101351.72;5390247;32;35046;-70
2024/01/12 10:32:09;;;;;;;;;;;;;;;4.34;45.14;101348.38;5417301;32;35792;-73
2024/01/12 10:35:11;;;;;;;;;;;;;;;4.37;45.04;101347.50;5388577;32;34887;-71
2024/01/12 10:38:15;;;;;;;;;;;;;;;4.95;43.56;101338.84;5402834;32;35125;-71
2024/01/12 10:41:19;;;;;;;;;;;;;;;4.29;45.71;101342.31;5413163;32;34844;-71
2024/01/12 10:44:22;;;;;;;;;;;;;;;4.31;45.70;101343.16;5391296;32;35347;-70
2024/01/12 10:47:24;;;;;;;;;;;;;;;4.65;44.38;101335.41;5393890;32;35107;-70
2024/01/12 10:50:26;;;;;;;;;;;;;;;4.34;44.00;101337.97;5396347;32;34879;-70
2024/01/12 10:53:37;;;;;;;;;;;;;;;3.88;45.64;101339.59;5411067;32;35290;-71
2024/01/12 10:56:40;;;;;;;;;;;;;;;3.63;46.36;101333.44;5387919;32;35069;-70
2024/01/12 10:59:42;;;;;;;;;;;;;;;3.83;46.52;101319.66;5417341;32;34221;-70
2024/01/12 11:02:44;;;;;;;;;;;;;;;4.54;45.21;101321.50;5388924;32;35426;-71
2024/01/12 11:05:49;;;;;;;;;;;;;;;5.41;42.51;101311.84;5400525;32;34359;-70
2024/01/12 11:08:54;;;;;;;;;;;;;;;4.15;44.51;101323.19;5417938;32;34341;-69
2024/01/12 11:12:03;;;;;;;;;;;;;;;4.71;43.82;101319.78;5404840;32;35802;-71
2024/01/12 11:15:05;;;;;;;;;;;;;;;5.25;42.35;101317.97;5410536;32;34655;-71
2024/01/12 11:18:08;;;;;;;;;;;;;;;4.31;44.42;101322.34;5414787;32;35308;-70
2024/01/12 11:21:10;;;;;;;;;;;;;;;4.02;45.37;101324.03;5416030;32;34855;-74
2024/01/12 11:24:13;;;;;;;;;;;;;;;4.50;44.25;101317.16;5398918;32;36203;-71
2024/01/12 11:27:15;;;;;;;;;;;;;;;3.78;45.62;101312.69;5414989;32;34962;-71
2024/01/12 11:30:21;;;;;;;;;;;;;;;4.45;43.14;101309.38;5397434;32;34542;-70
2024/01/12 11:33:25;;;;;;;;;;;;;;;4.03;44.42;101320.56;5401208;32;35192;-70
2024/01/12 11:36:28;;;;;;;;;;;;;;;3.79;44.75;101311.81;5414964;32;36491;-71
2024/01/12 11:39:34;;;;;;;;;;;;;;;4.05;45.44;101317.09;5400572;32;34249;-72
2024/01/12 11:42:37;;;;;;;;;;;;;;;3.72;45.87;101317.00;5403271;32;34961;-70
2024/01/12 11:45:39;;;;;;;;;;;;;;;3.17;47.14;101316.75;5408829;32;34573;-71
2024/01/12 11:48:43;;;;;;;;;;;;;;;2.91;47.47;101317.44;5397169;32;35220;-70
2024/01/12 11:51:46;;;;;;;;;;;;;;;3.02;48.07;101314.91;5396568;32;34891;-70
2024/01/12 11:54:48;;;;;;;;;;;;;;;3.37;46.44;101307.31;5414222;32;33671;-69
2024/01/12 11:57:53;;;;;;;;;;;;;;;3.54;46.42;101307.38;5400924;32;34732;-71
2024/01/12 12:00:55;;;;;;;;;;;;;;;3.96;45.83;101295.41;5412300;32;35086;-70
2024/01/12 12:03:57;;;;;;;;;;;;;;;3.41;47.25;101297.78;5400276;32;34822;-71
2024/01/12 12:06:59;;;;;;;;;;;;;;;3.60;46.14;101298.75;5417898;32;34313;-70
2024/01/12 12:10:02;;;;;;;;;;;;;;;3.82;45.81;101297.09;5410293;32;34336;-70
2024/01/12 12:13:08;;;;;;;;;;;;;;;4.37;44.47;101300.66;5396876;32;34486;-70
2024/01/12 12:16:10;;;;;;;;;;;;;;;3.96;45.39;101295.41;5402641;32;34281;-69
2024/01/12 12:19:12;;;;;;;;;;;;;;;3.52;46.04;101290.91;5410153;32;35042;-69
2024/01/12 12:22:14;;;;;;;;;;;;;;;3.51;46.75;101287.47;5400094;32;34920;-70
2024/01/12 12:25:16;;;;;;;;;;;;;;;3.98;45.93;101289.31;5392723;32;35387;-71
2024/01/12 12:28:18;;;;;;;;;;;;;;;3.81;46.48;101285.84;5418301;32;34807;-72
2024/01/12 12:31:20;;;;;;;;;;;;;;;3.58;46.62;101274.47;5412027;32;34930;-70
2024/01/12 12:34:22;;;;;;;;;;;;;;;3.56;47.42;101276.22;5415107;32;35052;-69
2024/01/12 12:37:24;;;;;;;;;;;;;;;2.98;48.22;101288.06;5398662;32;35349;-69
2024/01/12 12:40:26;;;;;;;;;;;;;;;3.68;47.49;101287.53;5400263;32;34812;-69
2024/01/12 12:43:29;;;;;;;;;;;;;;;4.22;46.59;101272.03;5413707;32;34268;-69
2024/01/12 12:46:31;;;;;;;;;;;;;;;2.67;50.48;101286.97;5398929;32;35355;-71
2024/01/12 12:49:36;;;;;;;;;;;;;;;3.59;48.87;101274.47;5415583;32;34315;-70
2024/01/12 12:52:40;;;;;;;;;;;;;;;3.82;48.14;101281.50;5395887;32;35040;-71
2024/01/12 12:55:42;;;;;;;;;;;;;;;4.23;46.92;101266.81;5413775;32;34676;-70
2024/01/12 12:58:44;;;;;;;;;;;;;;;4.99;45.19;101271.13;5407822;32;35610;-71
2024/01/12 13:01:46;;;;;;;;;;;;;;;4.34;46.92;101259.91;5412250;32;34761;-70
2024/01/12 13:04:48;;;;;;;;;;;;;;;3.60;47.74;101271.00;5410152;32;33600;-71
2024/01/12 13:07:50;;;;;;;;;;;;;;;3.78;47.10;101262.41;5409503;32;34959;-69
2024/01/12 13:10:54;;;;;;;;;;;;;;;3.85;47.28;101271.09;5412170;32;34796;-70
2024/01/12 13:13:56;;;;;;;;;;;;;;;3.92;47.30;101258.09;5409812;32;34869;-71
2024/01/12 13:16:59;;;;;;;;;;;;;;;4.47;46.08;101249.50;5410422;32;35010;-71
2024/01/12 13:20:02;;;;;;;;;;;;;;;4.38;45.87;101252.06;5409018;32;35196;-70
2024/01/12 13:23:05;;;;;;;;;;;;;;;4.14;46.98;101261.63;5408942;32;35914;-69
2024/01/12 13:26:07;;;;;;;;;;;;;;;4.58;44.67;101256.44;5407192;32;35763;-70
2024/01/12 13:29:08;;;;;;;;;;;;;;;3.59;47.51;101261.47;5409522;32;35951;-69
2024/01/12 13:32:13;;;;;;;;;;;;;;;3.65;47.43;101258.91;5409536;32;34950;-71
2024/01/12 13:35:15;;;;;;;;;;;;;;;4.59;45.87;101244.28;5396212;32;35173;-70
2024/01/12 13:38:17;;;;;;;;;;;;;;;4.18;45.63;101245.12;5412818;32;34934;-70
2024/01/12 13:41:21;;;;;;;;;;;;;;;4.77;44.87;101235.59;5394717;32;35654;-69
2024/01/12 13:44:23;;;;;;;;;;;;;;;4.87;44.30;101232.94;5397885;32;35123;-71
2024/01/12 13:47:25;;;;;;;;;;;;;;;4.79;44.59;101229.50;5408400;32;35359;-70
2024/01/12 13:50:27;;;;;;;;;;;;;;;4.86;44.10;101226.00;5408323;32;35015;-70
2024/01/12 13:53:30;;;;;;;;;;;;;;;4.30;44.99;101233.87;5414188;32;35209;-71
2024/01/12 13:56:33;;;;;;;;;;;;;;;4.58;44.67;101224.31;5408438;32;35120;-69
2024/01/12 13:59:36;;;;;;;;;;;;;;;4.08;45.11;101226.06;5410589;32;35190;-70
2024/01/12 14:02:38;;;;;;;;;;;;;;;4.48;44.25;101214.78;5388946;32;35814;-69
2024/01/12 14:05:40;;;;;;;;;;;;;;;4.73;44.44;101226.03;5395205;32;34783;-70
2024/01/12 14:08:43;;;;;;;;;;;;;;;4.12;44.96;101229.50;5394772;32;35469;-71
2024/01/12 14:11:45;;;;;;;;;;;;;;;4.16;45.12;101226.06;5406086;32;36880;-72
2024/01/12 14:14:47;;;;;;;;;;;;;;;4.20;45.11;101229.53;5397851;32;34852;-70
2024/01/12 14:17:49;;;;;;;;;;;;;;;4.33;44.66;101234.75;5408442;32;35029;-70
2024/01/12 14:20:53;;;;;;;;;;;;;;;4.93;43.45;101242.47;5395636;32;34970;-70
2024/01/12 14:23:55;;;;;;;;;;;;;;;4.26;44.11;101240.81;5389624;32;34495;-70
2024/01/12 14:26:57;;;;;;;;;;;;;;;3.74;45.61;101243.34;5396253;32;35049;-70
2024/01/12 14:29:59;;;;;;;;;;;;;;;4.39;44.66;101228.69;5410252;32;34959;-69
2024/01/12 14:33:02;;;;;;;;;;;;;;;4.20;44.71;101227.81;5391516;32;34415;-69
2024/01/12 14:36:05;;;;;;;;;;;;;;;3.84;46.16;101225.16;5397350;32;35844;-70
2024/01/12 14:39:07;;;;;;;;;;;;;;;3.67;46.05;101222.50;5408752;32;34812;-71
2024/01/12 14:42:09;;;;;;;;;;;;;;;4.03;45.22;101219.13;5394742;32;34765;-71
2024/01/12 14:45:11;;;;;;;;;;;;;;;3.60;46.46;101219.03;5408357;32;34359;-70
2024/01/12 14:48:13;;;;;;;;;;;;;;;3.63;46.66;101221.66;5407932;32;34867;-69
2024/01/12 14:51:16;;;;;;;;;;;;;;;3.55;46.38;101225.09;5395294;32;35074;-69
2024/01/12 14:54:18;;;;;;;;;;;;;;;3.97;46.28;101226.91;5394083;32;35258;-70
2024/01/12 14:57:20;;;;;;;;;;;;;;;3.84;45.96;101231.22;5388036;32;35619;-70
2024/01/12 15:00:22;;;;;;;;;;;;;;;3.34;46.97;101224.13;5391083;32;36096;-69
2024/01/12 15:03:24;;;;;;;;;;;;;;;3.70;46.65;101225.12;5405840;32;35069;-70
2024/01/12 15:06:26;;;;;;;;;;;;;;;3.89;45.63;101231.25;5387049;32;35524;-73
2024/01/12 15:09:28;;;;;;;;;;;;;;;3.45;46.73;101229.38;5393663;32;34428;-70
2024/01/12 15:12:31;;;;;;;;;;;;;;;3.91;45.69;101232.97;5403313;32;34150;-70
2024/01/12 15:15:33;;;;;;;;;;;;;;;3.41;46.90;101238.88;5402208;32;34993;-70
2024/01/12 15:18:35;;;;;;;;;;;;;;;3.60;46.37;101231.16;5411400;32;35514;-71
2024/01/12 15:21:41;;;;;;;;;;;;;;;3.50;46.42;101235.47;5389983;32;36561;-69
2024/01/12 15:24:42;;;;;;;;;;;;;;;3.53;46.61;101241.53;5409780;32;35395;-71
2024/01/12 15:27:44;;;;;;;;;;;;;;;3.40;46.33;101242.34;5410094;32;34739;-69
2024/01/12 15:30:47;;;;;;;;;;;;;;;3.02;46.99;101239.56;5401417;32;34440;-70
2024/01/12 15:33:49;;;;;;;;;;;;;;;3.57;46.31;101244.16;5398031;32;35056;-70
2024/01/12 15:36:51;;;;;;;;;;;;;;;3.16;46.92;101242.28;5409423;32;35072;-70
2024/01/12 15:39:53;;;;;;;;;;;;;;;3.48;46.18;101238.06;5417432;32;35445;-71
2024/01/12 15:42:55;;;;;;;;;;;;;;;3.04;47.32;101250.87;5413799;32;35174;-69
2024/01/12 15:45:57;;;;;;;;;;;;;;;3.11;47.10;101257.81;5417427;32;33328;-70
2024/01/12 15:49:00;;;;;;;;;;;;;;;2.51;48.44;101251.34;5413915;32;35370;-70
2024/01/12 15:52:02;;;;;;;;;;;;;;;2.57;48.14;101253.13;5414258;32;35277;-70
2024/01/12 15:55:04;;;;;;;;;;;;;;;2.67;48.35;101252.34;5403385;32;35145;-72
2024/01/12 15:58:06;;;;;;;;;;;;;;;3.05;47.69;101260.37;5392183;32;34240;-70
2024/01/12 16:01:08;;;;;;;;;;;;;;;2.83;47.93;101261.09;5402435;32;35884;-70